createdAt,value
2018-05-13T00:00:57.562Z,0.00
2018-05-13T00:01:57.751Z,0.00
2018-05-13T00:02:57.940Z,0.00
2018-05-13T00:03:58.128Z,0.00
2018-05-13T00:04:58.316Z,0.00
2018-05-13T00:05:58.505Z,0.00
2018-05-13T00:06:58.694Z,0.00
2018-05-13T00:07:58.882Z,0.00
2018-05-13T00:08:59.072Z,0.00
2018-05-13T00:09:59.258Z,0.00
2018-05-13T00:10:59.447Z,0.00
2018-05-13T00:11:59.635Z,0.00
2018-05-13T00:12:59.824Z,0.00
2018-05-13T00:14:00.011Z,0.00
2018-05-13T00:15:00.201Z,0.00
2018-05-13T00:16:00.391Z,0.00
2018-05-13T00:17:00.577Z,0.00
2018-05-13T00:18:00.768Z,0.00
2018-05-13T00:19:00.958Z,0.00
2018-05-13T00:20:01.151Z,0.00
2018-05-13T00:21:01.336Z,0.00
2018-05-13T00:22:01.527Z,0.00
2018-05-13T00:23:01.713Z,0.00
2018-05-13T00:24:01.904Z,0.00
2018-05-13T00:25:02.097Z,4.00
2018-05-13T00:26:02.282Z,4.00
2018-05-13T00:27:02.465Z,4.00
2018-05-13T00:28:02.655Z,4.00
2018-05-13T00:29:02.841Z,4.00
2018-05-13T00:30:03.030Z,4.00
2018-05-13T00:31:03.220Z,4.00
2018-05-13T00:32:03.409Z,4.00
2018-05-13T00:33:03.598Z,4.00
2018-05-13T00:34:03.784Z,0.00
2018-05-13T00:35:03.973Z,0.00
2018-05-13T00:36:04.161Z,0.00
2018-05-13T00:37:04.350Z,0.00
2018-05-13T00:38:04.539Z,0.00
2018-05-13T00:39:04.727Z,0.00
2018-05-13T00:40:04.917Z,0.00
2018-05-13T00:41:05.103Z,0.00
2018-05-13T00:42:05.292Z,0.00
2018-05-13T00:43:05.480Z,0.00
2018-05-13T00:44:05.670Z,0.00
2018-05-13T00:45:05.858Z,0.00
2018-05-13T00:46:06.047Z,0.00
2018-05-13T00:47:06.311Z,0.00
2018-05-13T00:48:06.423Z,0.00
2018-05-13T00:49:06.612Z,0.00
2018-05-13T00:50:06.800Z,0.00
2018-05-13T00:51:06.989Z,0.00
2018-05-13T00:52:07.179Z,0.00
2018-05-13T00:53:07.368Z,0.00
2018-05-13T00:54:07.552Z,0.00
2018-05-13T00:55:07.742Z,0.00
2018-05-13T00:56:07.930Z,0.00
2018-05-13T00:57:08.119Z,0.00
2018-05-13T00:58:08.308Z,0.00
2018-05-13T00:59:08.496Z,0.00
2018-05-13T01:00:08.684Z,0.00
2018-05-13T01:01:08.876Z,0.00
2018-05-13T01:02:09.064Z,0.00
2018-05-13T01:03:09.253Z,0.00
2018-05-13T01:04:09.440Z,0.00
2018-05-13T01:05:09.629Z,0.00
2018-05-13T01:06:09.815Z,0.00
2018-05-13T01:07:10.007Z,0.00
2018-05-13T01:08:10.196Z,0.00
2018-05-13T01:09:10.383Z,0.00
2018-05-13T01:10:10.572Z,0.00
2018-05-13T01:11:10.761Z,0.00
2018-05-13T01:12:10.948Z,0.00
2018-05-13T01:13:11.136Z,4.00
2018-05-13T01:14:11.325Z,4.00
2018-05-13T01:15:11.514Z,4.00
2018-05-13T01:16:11.703Z,4.00
2018-05-13T01:17:11.899Z,4.00
2018-05-13T01:18:12.085Z,4.00
2018-05-13T01:19:12.269Z,4.00
2018-05-13T01:20:12.457Z,4.00
2018-05-13T01:21:12.646Z,0.00
2018-05-13T01:22:12.834Z,0.00
2018-05-13T01:23:13.027Z,0.00
2018-05-13T01:24:13.212Z,0.00
2018-05-13T01:25:13.402Z,0.00
2018-05-13T01:26:13.590Z,0.00
2018-05-13T01:27:13.780Z,0.00
2018-05-13T01:28:13.968Z,0.00
2018-05-13T01:29:14.157Z,0.00
2018-05-13T01:30:14.345Z,0.00
2018-05-13T01:31:14.534Z,0.00
2018-05-13T01:32:14.722Z,0.00
2018-05-13T01:33:14.909Z,0.00
2018-05-13T01:34:15.099Z,0.00
2018-05-13T01:35:15.285Z,0.00
2018-05-13T01:36:15.474Z,0.00
2018-05-13T01:37:15.661Z,0.00
2018-05-13T01:38:15.851Z,0.00
2018-05-13T01:39:16.040Z,0.00
2018-05-13T01:40:16.228Z,0.00
2018-05-13T01:41:16.417Z,0.00
2018-05-13T01:42:16.607Z,0.00
2018-05-13T01:43:16.792Z,0.00
2018-05-13T01:44:16.981Z,0.00
2018-05-13T01:45:17.170Z,0.00
2018-05-13T01:46:17.360Z,0.00
2018-05-13T01:47:17.553Z,0.00
2018-05-13T01:48:17.737Z,0.00
2018-05-13T01:49:17.926Z,0.00
2018-05-13T01:50:18.111Z,0.00
2018-05-13T01:51:18.301Z,0.00
2018-05-13T01:52:18.492Z,0.00
2018-05-13T01:53:18.678Z,0.00
2018-05-13T01:54:18.866Z,0.00
2018-05-13T01:55:19.055Z,0.00
2018-05-13T01:56:19.244Z,0.00
2018-05-13T01:57:19.434Z,0.00
2018-05-13T01:58:19.618Z,0.00
2018-05-13T01:59:19.806Z,0.00
2018-05-13T02:00:19.998Z,0.00
2018-05-13T02:01:20.182Z,0.00
2018-05-13T02:02:20.373Z,0.00
2018-05-13T02:03:20.559Z,0.00
2018-05-13T02:04:20.746Z,0.00
2018-05-13T02:05:20.936Z,0.00
2018-05-13T02:06:21.124Z,0.00
2018-05-13T02:07:21.311Z,0.00
2018-05-13T02:08:21.501Z,0.00
2018-05-13T02:09:21.688Z,0.00
2018-05-13T02:10:21.877Z,0.00
2018-05-13T02:11:22.065Z,0.00
2018-05-13T02:12:22.252Z,0.00
2018-05-13T02:13:22.439Z,0.00
2018-05-13T02:14:22.627Z,0.00
2018-05-13T02:15:22.816Z,0.00
2018-05-13T02:16:23.007Z,0.00
2018-05-13T02:17:23.192Z,0.00
2018-05-13T02:18:23.380Z,0.00
2018-05-13T02:19:23.569Z,0.00
2018-05-13T02:20:23.756Z,0.00
2018-05-13T02:21:23.945Z,0.00
2018-05-13T02:22:24.133Z,0.00
2018-05-13T02:23:24.321Z,0.00
2018-05-13T02:24:24.509Z,0.00
2018-05-13T02:25:24.697Z,0.00
2018-05-13T02:26:24.887Z,0.00
2018-05-13T02:27:25.076Z,0.00
2018-05-13T02:28:25.266Z,0.00
2018-05-13T02:29:25.453Z,0.00
2018-05-13T02:30:25.640Z,0.00
2018-05-13T02:31:25.833Z,0.00
2018-05-13T02:32:26.019Z,0.00
2018-05-13T02:33:26.201Z,0.00
2018-05-13T02:34:26.392Z,0.00
2018-05-13T02:35:26.578Z,0.00
2018-05-13T02:36:26.767Z,0.00
2018-05-13T02:37:26.954Z,0.00
2018-05-13T02:38:27.148Z,0.00
2018-05-13T02:39:27.331Z,0.00
2018-05-13T02:40:27.518Z,0.00
2018-05-13T02:41:27.706Z,0.00
2018-05-13T02:42:27.897Z,0.00
2018-05-13T02:43:28.084Z,0.00
2018-05-13T02:44:28.272Z,0.00
2018-05-13T02:45:28.459Z,0.00
2018-05-13T02:46:28.700Z,0.00
2018-05-13T02:47:28.840Z,0.00
2018-05-13T02:48:29.024Z,4.00
2018-05-13T02:49:29.211Z,4.00
2018-05-13T02:50:29.399Z,0.00
2018-05-13T02:51:29.588Z,0.00
2018-05-13T02:52:29.780Z,4.00
2018-05-13T02:53:29.963Z,4.00
2018-05-13T02:54:30.151Z,0.00
2018-05-13T02:55:30.339Z,4.00
2018-05-13T02:56:30.528Z,0.00
2018-05-13T02:57:30.713Z,4.00
2018-05-13T02:58:30.903Z,4.00
2018-05-13T02:59:31.090Z,8.00
2018-05-13T03:00:31.277Z,8.00
2018-05-13T03:01:31.466Z,8.00
2018-05-13T03:02:31.654Z,8.00
2018-05-13T03:03:31.849Z,8.00
2018-05-13T03:04:32.031Z,12.00
2018-05-13T03:05:32.219Z,12.00
2018-05-13T03:06:32.405Z,16.00
2018-05-13T03:07:32.593Z,16.00
2018-05-13T03:08:32.782Z,20.00
2018-05-13T03:09:32.968Z,24.00
2018-05-13T03:10:33.156Z,24.00
2018-05-13T03:11:33.346Z,28.00
2018-05-13T03:12:33.602Z,36.00
2018-05-13T03:13:33.721Z,36.00
2018-05-13T03:14:33.908Z,44.00
2018-05-13T03:15:34.098Z,52.00
2018-05-13T03:16:34.284Z,56.00
2018-05-13T03:17:34.473Z,68.00
2018-05-13T03:18:34.661Z,76.00
2018-05-13T03:19:34.848Z,88.00
2018-05-13T03:20:35.038Z,100.00
2018-05-13T03:21:35.226Z,112.00
2018-05-13T03:22:35.413Z,136.00
2018-05-13T03:23:35.602Z,152.00
2018-05-13T03:24:35.789Z,176.00
2018-05-13T03:25:35.976Z,200.00
2018-05-13T03:26:36.163Z,228.00
2018-05-13T03:27:36.353Z,256.00
2018-05-13T03:28:36.542Z,296.00
2018-05-13T03:29:36.727Z,332.00
2018-05-13T03:30:36.916Z,368.00
2018-05-13T03:31:37.104Z,408.00
2018-05-13T03:32:37.294Z,448.00
2018-05-13T03:33:37.479Z,492.00
2018-05-13T03:34:37.667Z,536.00
2018-05-13T03:35:37.854Z,584.00
2018-05-13T03:36:38.041Z,628.00
2018-05-13T03:37:38.231Z,676.00
2018-05-13T03:38:38.419Z,720.00
2018-05-13T03:39:38.606Z,772.00
2018-05-13T03:40:38.876Z,816.00
2018-05-13T03:41:38.983Z,876.00
2018-05-13T03:42:39.170Z,940.00
2018-05-13T03:43:39.358Z,1016.00
2018-05-13T03:44:39.548Z,1096.00
2018-05-13T03:45:39.736Z,1172.00
2018-05-13T03:46:39.931Z,1268.00
2018-05-13T03:47:40.118Z,1356.00
2018-05-13T03:48:40.301Z,1460.00
2018-05-13T03:49:40.491Z,1564.00
2018-05-13T03:50:40.678Z,1676.00
2018-05-13T03:51:40.867Z,1792.00
2018-05-13T03:52:41.055Z,1908.00
2018-05-13T03:53:41.242Z,2040.00
2018-05-13T03:54:41.435Z,2184.00
2018-05-13T03:55:41.618Z,2344.00
2018-05-13T03:56:41.806Z,2508.00
2018-05-13T03:57:41.995Z,2684.00
2018-05-13T03:58:42.186Z,2892.00
2018-05-13T03:59:42.371Z,3120.00
2018-05-13T04:00:42.561Z,3352.00
2018-05-13T04:01:42.751Z,3572.00
2018-05-13T04:02:42.939Z,3836.00
2018-05-13T04:03:43.128Z,4148.00
2018-05-13T04:04:43.319Z,4356.00
2018-05-13T04:05:43.505Z,4684.00
2018-05-13T04:06:43.695Z,4980.00
2018-05-13T04:07:43.884Z,5308.00
2018-05-13T04:08:44.073Z,5664.00
2018-05-13T04:09:44.262Z,6000.00
2018-05-13T04:10:44.452Z,6216.00
2018-05-13T04:11:44.640Z,6636.00
2018-05-13T04:12:44.831Z,7284.00
2018-05-13T04:13:45.021Z,7876.00
2018-05-13T04:14:45.209Z,8292.00
2018-05-13T04:15:45.399Z,8556.00
2018-05-13T04:16:45.589Z,8808.00
2018-05-13T04:17:45.779Z,9208.00
2018-05-13T04:18:46.042Z,9744.00
2018-05-13T04:19:46.159Z,10012.00
2018-05-13T04:20:46.350Z,10696.00
2018-05-13T04:21:46.543Z,11296.00
2018-05-13T04:22:46.733Z,11584.00
2018-05-13T04:23:46.923Z,12544.00
2018-05-13T04:24:47.113Z,13472.00
2018-05-13T04:25:47.305Z,14336.00
2018-05-13T04:26:47.495Z,14784.00
2018-05-13T04:27:47.686Z,15520.00
2018-05-13T04:28:47.878Z,16256.00
2018-05-13T04:29:48.069Z,17216.00
2018-05-13T04:30:48.259Z,17920.00
2018-05-13T04:31:48.450Z,18336.00
2018-05-13T04:32:48.641Z,18528.00
2018-05-13T04:33:48.833Z,18560.00
2018-05-13T04:34:49.022Z,18528.00
2018-05-13T04:35:49.215Z,18880.00
2018-05-13T04:36:49.405Z,19392.00
2018-05-13T04:37:49.600Z,19232.00
2018-05-13T04:38:49.788Z,20000.00
2018-05-13T04:39:49.980Z,20512.00
2018-05-13T04:40:50.170Z,20768.00
2018-05-13T04:41:50.367Z,20096.00
2018-05-13T04:42:50.554Z,19520.00
2018-05-13T04:43:50.747Z,18624.00
2018-05-13T04:44:50.941Z,19136.00
2018-05-13T04:45:51.133Z,20480.00
2018-05-13T04:46:51.325Z,20928.00
2018-05-13T04:47:51.517Z,21280.00
2018-05-13T04:48:51.710Z,21440.00
2018-05-13T04:49:51.903Z,21664.00
2018-05-13T04:50:52.093Z,21920.00
2018-05-13T04:51:52.284Z,21696.00
2018-05-13T04:52:52.477Z,22368.00
2018-05-13T04:53:52.670Z,23488.00
2018-05-13T04:54:52.861Z,24064.00
2018-05-13T04:55:53.057Z,25216.00
2018-05-13T04:56:53.247Z,25376.00
2018-05-13T04:57:53.439Z,27136.00
2018-05-13T04:58:53.631Z,29920.00
2018-05-13T04:59:53.823Z,32928.00
2018-05-13T05:00:54.018Z,35264.00
2018-05-13T05:01:54.207Z,35488.00
2018-05-13T05:02:54.402Z,36288.00
2018-05-13T05:03:54.594Z,38496.00
2018-05-13T05:04:54.786Z,40192.00
2018-05-13T05:05:54.979Z,40960.00
2018-05-13T05:06:55.173Z,41184.00
2018-05-13T05:07:55.366Z,40896.00
2018-05-13T05:08:55.624Z,41440.00
2018-05-13T05:09:55.755Z,42688.00
2018-05-13T05:10:55.951Z,43360.00
2018-05-13T05:11:56.144Z,43968.00
2018-05-13T05:12:56.339Z,44800.00
2018-05-13T05:13:56.533Z,45696.00
2018-05-13T05:14:56.728Z,46176.00
2018-05-13T05:15:56.923Z,46624.00
2018-05-13T05:16:57.119Z,45088.00
2018-05-13T05:17:57.317Z,46784.00
2018-05-13T05:18:57.510Z,48192.00
2018-05-13T05:19:57.706Z,48480.00
2018-05-13T05:20:57.903Z,49536.00
2018-05-13T05:21:58.100Z,48736.00
2018-05-13T05:22:58.297Z,50496.00
2018-05-13T05:23:58.494Z,49152.00
2018-05-13T05:24:58.691Z,50432.00
2018-05-13T05:25:58.886Z,51840.00
2018-05-13T05:26:59.084Z,51968.00
2018-05-13T05:27:59.303Z,51872.00
2018-05-13T05:28:59.478Z,52224.00
2018-05-13T05:29:59.678Z,51616.00
2018-05-13T05:30:59.873Z,51712.00
2018-05-13T05:32:00.072Z,51136.00
2018-05-13T05:33:00.268Z,50816.00
2018-05-13T05:34:00.465Z,52768.00
2018-05-13T05:35:00.664Z,53184.00
2018-05-13T05:36:00.862Z,53472.00
2018-05-13T05:37:01.058Z,54624.00
2018-05-13T05:38:01.255Z,53856.00
2018-05-13T05:39:01.452Z,56096.00
2018-05-13T05:40:01.651Z,55904.00
2018-05-13T05:41:01.847Z,55296.00
2018-05-13T05:42:02.046Z,55104.00
2018-05-13T05:43:02.244Z,52992.00
2018-05-13T05:44:02.443Z,51840.00
2018-05-13T05:45:02.639Z,54432.00
2018-05-13T05:46:02.840Z,55104.00
2018-05-13T05:47:03.040Z,57152.00
2018-05-13T05:48:03.278Z,59168.00
2018-05-13T05:49:03.437Z,59712.00
2018-05-13T05:50:03.635Z,59392.00
2018-05-13T05:51:03.835Z,61056.00
2018-05-13T05:52:04.040Z,61376.00
2018-05-13T05:53:04.237Z,62848.00
2018-05-13T05:54:04.435Z,39168.00
2018-05-13T05:55:04.636Z,64544.00
2018-05-13T05:56:04.840Z,64704.00
2018-05-13T05:57:05.034Z,65760.00
2018-05-13T05:58:05.234Z,67680.00
2018-05-13T05:59:05.434Z,67872.00
2018-05-13T06:00:05.635Z,69120.00
2018-05-13T06:01:05.835Z,69728.00
2018-05-13T06:02:06.036Z,70144.00
2018-05-13T06:03:06.246Z,69472.00
2018-05-13T06:04:06.440Z,69600.00
2018-05-13T06:05:06.643Z,69152.00
2018-05-13T06:06:06.840Z,67648.00
2018-05-13T06:07:07.041Z,69472.00
2018-05-13T06:08:07.243Z,67200.00
2018-05-13T06:09:07.443Z,67872.00
2018-05-13T06:10:07.645Z,70816.00
2018-05-13T06:11:07.847Z,71328.00
2018-05-13T06:12:08.049Z,72352.00
2018-05-13T06:13:08.248Z,74336.00
2018-05-13T06:14:08.451Z,72576.00
2018-05-13T06:15:08.653Z,71264.00
2018-05-13T06:16:08.855Z,72800.00
2018-05-13T06:17:09.058Z,75392.00
2018-05-13T06:18:09.261Z,77344.00
2018-05-13T06:19:09.461Z,77056.00
2018-05-13T06:20:09.667Z,76320.00
2018-05-13T06:21:09.865Z,77088.00
2018-05-13T06:22:10.068Z,76256.00
2018-05-13T06:23:10.271Z,76672.00
2018-05-13T06:24:10.478Z,70336.00
2018-05-13T06:25:10.703Z,62464.00
2018-05-13T06:26:10.877Z,65760.00
2018-05-13T06:27:11.083Z,74784.00
2018-05-13T06:28:11.287Z,80864.00
2018-05-13T06:29:11.485Z,83488.00
2018-05-13T06:30:11.687Z,84128.00
2018-05-13T06:31:11.888Z,79648.00
2018-05-13T06:32:12.092Z,75392.00
2018-05-13T06:33:12.292Z,76064.00
2018-05-13T06:34:12.496Z,66720.00
2018-05-13T06:35:12.697Z,71712.00
2018-05-13T06:36:12.900Z,69056.00
2018-05-13T06:37:13.102Z,83936.00
2018-05-13T06:38:13.305Z,87232.00
2018-05-13T06:39:13.507Z,95552.00
2018-05-13T06:40:13.708Z,98880.00
2018-05-13T06:41:13.908Z,97792.00
2018-05-13T06:42:14.114Z,98208.00
2018-05-13T06:43:14.314Z,101056.00
2018-05-13T06:44:14.518Z,101792.00
2018-05-13T06:45:14.794Z,98528.00
2018-05-13T06:46:14.922Z,100448.00
2018-05-13T06:47:15.127Z,99904.00
2018-05-13T06:48:15.328Z,96448.00
2018-05-13T06:49:15.529Z,97600.00
2018-05-13T06:50:15.733Z,98752.00
2018-05-13T06:51:15.957Z,97408.00
2018-05-13T06:52:16.142Z,99584.00
2018-05-13T06:53:16.345Z,95840.00
2018-05-13T06:54:16.547Z,97376.00
2018-05-13T06:55:16.752Z,55840.00
2018-05-13T06:56:16.953Z,70624.00
2018-05-13T06:57:17.200Z,99072.00
2018-05-13T06:58:17.363Z,97408.00
2018-05-13T06:59:17.566Z,98400.00
2018-05-13T07:00:17.770Z,98624.00
2018-05-13T07:01:17.973Z,96928.00
2018-05-13T07:02:18.178Z,95872.00
2018-05-13T07:03:18.383Z,96800.00
2018-05-13T07:04:18.590Z,96064.00
2018-05-13T07:05:18.793Z,97248.00
2018-05-13T07:06:18.997Z,99616.00
2018-05-13T07:07:19.220Z,101344.00
2018-05-13T07:08:19.407Z,101376.00
2018-05-13T07:09:19.611Z,101984.00
2018-05-13T07:10:19.848Z,102784.00
2018-05-13T07:11:20.021Z,98752.00
2018-05-13T07:12:20.227Z,97408.00
2018-05-13T07:13:20.434Z,100544.00
2018-05-13T07:14:20.640Z,100288.00
2018-05-13T07:15:20.848Z,98176.00
2018-05-13T07:16:21.089Z,96928.00
2018-05-13T07:17:21.256Z,95296.00
2018-05-13T07:18:21.463Z,98720.00
2018-05-13T07:19:21.681Z,99264.00
2018-05-13T07:20:21.876Z,99584.00
2018-05-13T07:21:22.081Z,101312.00
2018-05-13T07:22:22.288Z,102560.00
2018-05-13T07:23:22.494Z,101696.00
2018-05-13T07:24:22.700Z,101440.00
2018-05-13T07:25:22.906Z,100128.00
2018-05-13T07:26:23.111Z,100224.00
2018-05-13T07:27:23.317Z,101536.00
2018-05-13T07:28:23.527Z,101408.00
2018-05-13T07:29:23.730Z,102560.00
2018-05-13T07:30:23.935Z,104224.00
2018-05-13T07:31:24.142Z,104064.00
2018-05-13T07:32:24.348Z,103328.00
2018-05-13T07:33:24.555Z,104096.00
2018-05-13T07:34:24.760Z,104704.00
2018-05-13T07:35:24.968Z,103040.00
2018-05-13T07:36:25.171Z,103296.00
2018-05-13T07:37:25.376Z,103168.00
2018-05-13T07:38:25.581Z,103744.00
2018-05-13T07:39:25.785Z,102112.00
2018-05-13T07:40:25.991Z,101088.00
2018-05-13T07:41:26.195Z,100160.00
2018-05-13T07:42:26.399Z,101152.00
2018-05-13T07:43:26.623Z,101472.00
2018-05-13T07:44:26.807Z,100800.00
2018-05-13T07:45:27.014Z,101344.00
2018-05-13T07:46:27.219Z,100704.00
2018-05-13T07:47:27.424Z,100032.00
2018-05-13T07:48:27.629Z,100320.00
2018-05-13T07:49:27.833Z,100192.00
2018-05-13T07:50:28.041Z,99584.00
2018-05-13T07:51:28.241Z,103328.00
2018-05-13T07:52:28.445Z,104384.00
2018-05-13T07:53:28.650Z,104928.00
2018-05-13T07:54:28.854Z,107264.00
2018-05-13T07:55:29.059Z,107296.00
2018-05-13T07:56:29.262Z,110752.00
2018-05-13T07:57:29.468Z,110080.00
2018-05-13T07:58:29.677Z,110016.00
2018-05-13T07:59:29.875Z,109664.00
2018-05-13T08:00:30.083Z,109216.00
2018-05-13T08:01:30.286Z,109120.00
2018-05-13T08:02:30.491Z,111168.00
2018-05-13T08:03:30.693Z,110240.00
2018-05-13T08:04:30.901Z,108480.00
2018-05-13T08:05:31.102Z,111136.00
2018-05-13T08:06:31.304Z,109952.00
2018-05-13T08:07:31.505Z,110400.00
2018-05-13T08:08:31.710Z,112352.00
2018-05-13T08:09:31.910Z,112256.00
2018-05-13T08:10:32.127Z,111808.00
2018-05-13T08:11:32.331Z,73184.00
2018-05-13T08:12:32.535Z,46624.00
2018-05-13T08:13:32.736Z,40736.00
2018-05-13T08:14:32.941Z,39424.00
2018-05-13T08:15:33.145Z,43968.00
2018-05-13T08:16:33.345Z,45248.00
2018-05-13T08:17:33.553Z,43168.00
2018-05-13T08:18:33.753Z,39936.00
2018-05-13T08:19:33.953Z,37280.00
2018-05-13T08:20:34.245Z,35776.00
2018-05-13T08:21:34.357Z,36480.00
2018-05-13T08:22:34.558Z,39072.00
2018-05-13T08:23:34.761Z,47424.00
2018-05-13T08:24:34.963Z,39008.00
2018-05-13T08:25:35.152Z,37888.00
2018-05-13T08:26:35.361Z,38208.00
2018-05-13T08:27:35.560Z,46848.00
2018-05-13T08:28:35.761Z,42432.00
2018-05-13T08:29:35.965Z,44480.00
2018-05-13T08:30:36.177Z,44960.00
2018-05-13T08:31:36.357Z,42464.00
2018-05-13T08:32:36.556Z,37728.00
2018-05-13T08:33:36.757Z,35296.00
2018-05-13T08:34:36.954Z,36544.00
2018-05-13T08:35:37.153Z,38720.00
2018-05-13T08:36:37.352Z,51168.00
2018-05-13T08:37:37.549Z,44832.00
2018-05-13T08:38:37.749Z,119040.00
2018-05-13T08:39:37.946Z,65952.00
2018-05-13T08:40:38.146Z,61824.00
2018-05-13T08:41:38.348Z,42240.00
2018-05-13T08:42:38.546Z,37728.00
2018-05-13T08:43:38.743Z,58976.00
2018-05-13T08:44:38.941Z,53920.00
2018-05-13T08:45:39.139Z,126560.00
2018-05-13T08:46:39.337Z,122560.00
2018-05-13T08:47:39.536Z,118816.00
2018-05-13T08:48:39.763Z,120992.00
2018-05-13T08:49:39.932Z,119424.00
2018-05-13T08:50:40.128Z,119040.00
2018-05-13T08:51:40.328Z,119136.00
2018-05-13T08:52:40.529Z,117440.00
2018-05-13T08:53:40.729Z,118528.00
2018-05-13T08:54:40.928Z,119648.00
2018-05-13T08:55:41.126Z,118624.00
2018-05-13T08:56:41.326Z,121184.00
2018-05-13T08:57:41.525Z,121472.00
2018-05-13T08:58:41.725Z,121408.00
2018-05-13T08:59:41.980Z,120640.00
2018-05-13T09:00:42.126Z,120032.00
2018-05-13T09:01:42.327Z,119168.00
2018-05-13T09:02:42.531Z,117536.00
2018-05-13T09:03:42.731Z,116288.00
2018-05-13T09:04:42.933Z,114208.00
2018-05-13T09:05:43.133Z,112544.00
2018-05-13T09:06:43.333Z,114624.00
2018-05-13T09:07:43.537Z,114944.00
2018-05-13T09:08:43.738Z,114464.00
2018-05-13T09:09:43.939Z,110720.00
2018-05-13T09:10:44.141Z,105856.00
2018-05-13T09:11:44.341Z,102912.00
2018-05-13T09:12:44.544Z,110240.00
2018-05-13T09:13:44.745Z,111200.00
2018-05-13T09:14:44.946Z,37984.00
2018-05-13T09:15:45.149Z,102528.00
2018-05-13T09:16:45.351Z,104256.00
2018-05-13T09:17:45.552Z,105824.00
2018-05-13T09:18:45.753Z,103904.00
2018-05-13T09:19:45.956Z,100192.00
2018-05-13T09:20:46.215Z,100672.00
2018-05-13T09:21:46.362Z,99136.00
2018-05-13T09:22:46.560Z,90144.00
2018-05-13T09:23:46.763Z,72384.00
2018-05-13T09:24:46.964Z,54784.00
2018-05-13T09:25:47.165Z,46944.00
2018-05-13T09:26:47.370Z,44864.00
2018-05-13T09:27:47.572Z,43232.00
2018-05-13T09:28:47.771Z,42816.00
2018-05-13T09:29:47.973Z,41664.00
2018-05-13T09:30:48.177Z,42432.00
2018-05-13T09:31:48.380Z,42240.00
2018-05-13T09:32:48.582Z,42720.00
2018-05-13T09:33:48.787Z,42176.00
2018-05-13T09:34:48.988Z,42560.00
2018-05-13T09:35:49.187Z,43904.00
2018-05-13T09:36:49.392Z,43328.00
2018-05-13T09:37:49.591Z,41472.00
2018-05-13T09:38:49.793Z,42976.00
2018-05-13T09:39:49.996Z,39904.00
2018-05-13T09:40:50.198Z,42400.00
2018-05-13T09:41:50.401Z,44544.00
2018-05-13T09:42:50.602Z,41952.00
2018-05-13T09:43:50.802Z,47392.00
2018-05-13T09:44:51.005Z,49696.00
2018-05-13T09:45:51.256Z,50240.00
2018-05-13T09:46:51.409Z,67200.00
2018-05-13T09:47:51.611Z,101792.00
2018-05-13T09:48:51.814Z,113280.00
2018-05-13T09:49:52.017Z,97152.00
2018-05-13T09:50:52.217Z,79168.00
2018-05-13T09:51:52.420Z,85056.00
2018-05-13T09:52:52.623Z,70048.00
2018-05-13T09:53:52.825Z,71584.00
2018-05-13T09:54:53.027Z,72576.00
2018-05-13T09:55:53.229Z,63616.00
2018-05-13T09:56:53.430Z,39936.00
2018-05-13T09:57:53.634Z,32832.00
2018-05-13T09:58:53.833Z,32736.00
2018-05-13T09:59:54.035Z,32576.00
2018-05-13T10:00:54.297Z,32736.00
2018-05-13T10:01:54.436Z,31904.00
2018-05-13T10:02:54.637Z,30368.00
2018-05-13T10:03:54.838Z,29248.00
2018-05-13T10:04:55.044Z,28384.00
2018-05-13T10:05:55.240Z,28160.00
2018-05-13T10:06:55.444Z,27968.00
2018-05-13T10:07:55.643Z,28288.00
2018-05-13T10:08:55.845Z,28416.00
2018-05-13T10:09:56.046Z,28256.00
2018-05-13T10:10:56.247Z,27264.00
2018-05-13T10:11:56.449Z,27008.00
2018-05-13T10:12:56.648Z,27456.00
2018-05-13T10:13:56.857Z,27680.00
2018-05-13T10:14:57.054Z,28096.00
2018-05-13T10:15:57.254Z,28256.00
2018-05-13T10:16:57.455Z,28064.00
2018-05-13T10:17:57.654Z,26624.00
2018-05-13T10:18:57.855Z,25024.00
2018-05-13T10:19:58.054Z,22720.00
2018-05-13T10:20:58.257Z,19776.00
2018-05-13T10:21:58.458Z,19744.00
2018-05-13T10:22:58.659Z,20832.00
2018-05-13T10:23:58.859Z,21216.00
2018-05-13T10:24:59.061Z,21856.00
2018-05-13T10:25:59.262Z,23232.00
2018-05-13T10:26:59.464Z,25664.00
2018-05-13T10:27:59.664Z,27392.00
2018-05-13T10:28:59.865Z,29344.00
2018-05-13T10:30:00.064Z,30400.00
2018-05-13T10:31:00.265Z,29504.00
2018-05-13T10:32:00.469Z,31168.00
2018-05-13T10:33:00.673Z,30880.00
2018-05-13T10:34:00.870Z,29920.00
2018-05-13T10:35:01.071Z,28672.00
2018-05-13T10:36:01.274Z,26944.00
2018-05-13T10:37:01.478Z,26176.00
2018-05-13T10:38:01.673Z,25600.00
2018-05-13T10:39:01.878Z,25440.00
2018-05-13T10:40:02.075Z,24544.00
2018-05-13T10:41:02.276Z,23008.00
2018-05-13T10:42:02.478Z,20320.00
2018-05-13T10:43:02.678Z,17824.00
2018-05-13T10:44:02.883Z,14988.00
2018-05-13T10:45:03.080Z,15260.00
2018-05-13T10:46:03.282Z,15136.00
2018-05-13T10:47:03.482Z,15376.00
2018-05-13T10:48:03.683Z,14688.00
2018-05-13T10:49:03.884Z,12036.00
2018-05-13T10:50:04.085Z,10480.00
2018-05-13T10:51:04.285Z,9988.00
2018-05-13T10:52:04.484Z,9784.00
2018-05-13T10:53:04.685Z,9268.00
2018-05-13T10:54:04.885Z,9080.00
2018-05-13T10:55:05.087Z,8772.00
2018-05-13T10:56:05.286Z,8684.00
2018-05-13T10:57:05.486Z,9028.00
2018-05-13T10:58:05.686Z,9340.00
2018-05-13T10:59:05.884Z,9404.00
2018-05-13T11:00:06.084Z,9640.00
2018-05-13T11:01:06.288Z,10300.00
2018-05-13T11:02:06.480Z,11204.00
2018-05-13T11:03:06.679Z,12076.00
2018-05-13T11:04:06.877Z,13168.00
2018-05-13T11:05:07.077Z,14292.00
2018-05-13T11:06:07.277Z,15252.00
2018-05-13T11:07:07.476Z,16020.00
2018-05-13T11:08:07.671Z,17088.00
2018-05-13T11:09:07.875Z,18048.00
2018-05-13T11:10:08.106Z,18912.00
2018-05-13T11:11:08.267Z,19552.00
2018-05-13T11:12:08.465Z,19808.00
2018-05-13T11:13:08.663Z,20064.00
2018-05-13T11:14:08.859Z,20992.00
2018-05-13T11:15:09.055Z,21248.00
2018-05-13T11:16:09.254Z,20864.00
2018-05-13T11:17:09.461Z,20544.00
2018-05-13T11:18:09.648Z,20768.00
2018-05-13T11:19:09.844Z,20928.00
2018-05-13T11:20:10.048Z,21408.00
2018-05-13T11:21:10.243Z,21024.00
2018-05-13T11:22:10.435Z,21824.00
2018-05-13T11:23:10.631Z,20448.00
2018-05-13T11:24:10.828Z,19200.00
2018-05-13T11:25:11.028Z,17600.00
2018-05-13T11:26:11.221Z,16704.00
2018-05-13T11:27:11.417Z,15316.00
2018-05-13T11:28:11.616Z,14436.00
2018-05-13T11:29:11.810Z,14032.00
2018-05-13T11:30:12.007Z,15040.00
2018-05-13T11:31:12.204Z,15888.00
2018-05-13T11:32:12.401Z,16928.00
2018-05-13T11:33:12.597Z,17472.00
2018-05-13T11:34:12.794Z,18208.00
2018-05-13T11:35:12.998Z,19072.00
2018-05-13T11:36:13.186Z,19840.00
2018-05-13T11:37:13.383Z,20672.00
2018-05-13T11:38:13.580Z,21312.00
2018-05-13T11:39:13.776Z,21888.00
2018-05-13T11:40:13.971Z,22144.00
2018-05-13T11:41:14.168Z,22624.00
2018-05-13T11:42:14.372Z,23136.00
2018-05-13T11:43:14.559Z,23424.00
2018-05-13T11:44:14.760Z,23488.00
2018-05-13T11:45:14.955Z,23584.00
2018-05-13T11:46:15.149Z,23392.00
2018-05-13T11:47:15.348Z,23232.00
2018-05-13T11:48:15.543Z,22592.00
2018-05-13T11:49:15.739Z,22048.00
2018-05-13T11:50:15.943Z,21312.00
2018-05-13T11:51:16.133Z,20736.00
2018-05-13T11:52:16.331Z,20512.00
2018-05-13T11:53:16.528Z,19872.00
2018-05-13T11:54:16.728Z,19680.00
2018-05-13T11:55:16.923Z,19712.00
2018-05-13T11:56:17.117Z,20704.00
2018-05-13T11:57:17.314Z,21472.00
2018-05-13T11:58:17.515Z,21856.00
2018-05-13T11:59:17.712Z,22816.00
2018-05-13T12:00:17.909Z,22464.00
2018-05-13T12:01:18.105Z,22720.00
2018-05-13T12:02:18.307Z,22368.00
2018-05-13T12:03:18.501Z,22272.00
2018-05-13T12:04:18.700Z,21728.00
2018-05-13T12:05:18.897Z,21568.00
2018-05-13T12:06:19.092Z,20320.00
2018-05-13T12:07:19.289Z,19648.00
2018-05-13T12:08:19.486Z,19200.00
2018-05-13T12:09:19.686Z,18496.00
2018-05-13T12:10:19.880Z,17888.00